Time;durP1;ratioP1;P1;durP2;ratioP2;P2;SDS_P1;SDS_P2;PMS_P1;PMS_P2;Temp;Humidity;BMP_temperature;BMP_pressure;BME280_temperature;BME280_humidity;BME280_pressure;Samples;Min_cycle;Max_cycle;Signal;HPM_P1;HPM_P2
2023/04/18 00:00:22;;;;;;;21.21;14.65;;;7.10;99.90;;;;;;4956893;28;10001258;-72
2023/04/18 00:02:50;;;;;;;23.25;14.57;;;7.10;99.90;;;;;;5003394;28;20266;-72
2023/04/18 00:05:18;;;;;;;25.10;15.10;;;7.00;99.90;;;;;;5009837;28;20037;-72
2023/04/18 00:07:44;;;;;;;23.73;15.57;;;7.00;99.90;;;;;;5006514;28;20105;-71
2023/04/18 00:10:10;;;;;;;23.65;15.23;;;7.00;99.90;;;;;;5009547;28;20164;-72
2023/04/18 00:12:36;;;;;;;20.95;15.52;;;7.10;99.90;;;;;;5008762;28;20038;-71
2023/04/18 00:15:03;;;;;;;24.98;15.80;;;7.00;99.90;;;;;;5007849;28;20034;-73
2023/04/18 00:17:30;;;;;;;21.67;15.77;;;7.00;99.90;;;;;;4998812;28;22471;-71
2023/04/18 00:19:57;;;;;;;26.08;16.70;;;7.10;99.90;;;;;;4997793;28;20033;-73
2023/04/18 00:22:24;;;;;;;24.90;16.92;;;7.10;99.90;;;;;;5008081;28;20039;-73
2023/04/18 00:24:51;;;;;;;22.55;15.98;;;7.10;99.90;;;;;;5006444;28;20022;-71
2023/04/18 00:27:20;;;;;;;22.80;16.75;;;7.10;99.90;;;;;;4997582;28;20116;-73
2023/04/18 00:29:46;;;;;;;30.52;18.25;;;7.10;99.90;;;;;;5005253;28;20363;-72
2023/04/18 00:32:12;;;;;;;22.77;16.40;;;7.10;99.90;;;;;;4999235;28;20030;-73
2023/04/18 00:34:39;;;;;;;25.60;16.73;;;7.10;99.90;;;;;;5006776;28;20026;-73
2023/04/18 00:37:05;;;;;;;23.08;17.00;;;7.10;99.90;;;;;;5002524;28;20034;-72
2023/04/18 00:39:30;;;;;;;22.25;16.10;;;7.10;99.90;;;;;;5007888;28;20031;-71
2023/04/18 00:41:56;;;;;;;24.73;17.15;;;7.10;99.90;;;;;;5007356;28;20433;-72
2023/04/18 00:44:21;;;;;;;24.67;16.77;;;7.10;99.90;;;;;;5001976;28;20034;-72
2023/04/18 00:46:47;;;;;;;25.08;16.67;;;7.00;99.90;;;;;;5006243;28;20113;-72
2023/04/18 00:49:13;;;;;;;22.65;16.85;;;7.00;99.90;;;;;;5007854;28;20088;-72
2023/04/18 00:51:39;;;;;;;27.25;17.35;;;7.00;99.90;;;;;;5006003;28;20477;-72
2023/04/18 00:54:06;;;;;;;23.38;16.67;;;6.90;99.90;;;;;;5002827;28;20037;-72
2023/04/18 00:56:33;;;;;;;25.08;17.90;;;6.90;99.90;;;;;;5004410;28;20113;-72
2023/04/18 00:58:59;;;;;;;23.10;15.60;;;6.90;99.90;;;;;;5009413;28;20421;-72
2023/04/18 01:01:25;;;;;;;26.10;16.73;;;6.90;99.90;;;;;;5003672;28;20080;-72
2023/04/18 01:03:50;;;;;;;25.20;15.95;;;6.80;99.90;;;;;;5007050;28;20033;-72
2023/04/18 01:06:16;;;;;;;24.90;15.70;;;6.80;99.90;;;;;;4993327;28;20458;-71
2023/04/18 01:08:43;;;;;;;25.67;16.58;;;6.80;99.90;;;;;;5000265;28;20038;-72
2023/04/18 01:11:09;;;;;;;22.17;15.65;;;6.80;99.90;;;;;;5007092;28;20595;-73
2023/04/18 01:13:34;;;;;;;24.45;15.30;;;6.80;99.90;;;;;;5009062;28;20057;-72
2023/04/18 01:16:00;;;;;;;23.83;16.35;;;6.80;99.90;;;;;;5002053;28;20050;-72
2023/04/18 01:18:26;;;;;;;22.33;15.80;;;6.70;99.90;;;;;;5000709;28;20591;-72
2023/04/18 01:20:55;;;;;;;23.02;16.40;;;6.70;99.90;;;;;;5002431;28;20026;-72
2023/04/18 01:23:21;;;;;;;23.42;16.35;;;6.70;99.90;;;;;;5003283;28;20390;-72
2023/04/18 01:25:50;;;;;;;24.02;15.98;;;6.70;99.90;;;;;;5010598;28;20025;-72
2023/04/18 01:28:17;;;;;;;21.77;16.00;;;6.60;99.90;;;;;;5011316;28;20036;-72
2023/04/18 01:30:42;;;;;;;25.58;16.88;;;6.60;99.90;;;;;;5003577;28;20030;-72
2023/04/18 01:33:08;;;;;;;20.52;15.93;;;6.60;99.90;;;;;;5007200;28;20113;-72
2023/04/18 01:35:34;;;;;;;24.52;16.75;;;6.60;99.90;;;;;;5009383;28;20114;-72
2023/04/18 01:38:00;;;;;;;24.25;16.27;;;6.60;99.90;;;;;;5010637;28;20042;-72
2023/04/18 01:40:25;;;;;;;24.50;16.33;;;6.50;99.90;;;;;;5007351;28;20040;-71
2023/04/18 01:42:51;;;;;;;23.20;16.65;;;6.50;99.90;;;;;;5010793;28;20037;-72
2023/04/18 01:45:18;;;;;;;24.48;16.17;;;6.50;99.90;;;;;;5010034;28;20046;-72
2023/04/18 01:47:43;;;;;;;22.92;16.30;;;6.50;99.90;;;;;;5012616;28;20500;-72
2023/04/18 01:50:09;;;;;;;24.98;16.75;;;6.50;99.90;;;;;;5008170;28;20054;-71
2023/04/18 01:52:35;;;;;;;28.17;17.38;;;6.50;99.90;;;;;;5008537;28;20022;-71
2023/04/18 01:55:02;;;;;;;26.38;17.25;;;6.40;99.90;;;;;;5005612;28;20034;-71
2023/04/18 01:57:27;;;;;;;25.27;16.33;;;6.40;99.90;;;;;;5012147;28;20022;-71
2023/04/18 01:59:53;;;;;;;24.50;17.00;;;6.50;99.90;;;;;;5010516;28;20774;-71
2023/04/18 02:02:19;;;;;;;26.50;17.38;;;6.40;99.90;;;;;;5010311;28;20087;-71
2023/04/18 02:04:44;;;;;;;23.00;16.95;;;6.40;99.90;;;;;;5010491;28;20022;-72
2023/04/18 02:07:10;;;;;;;27.52;16.77;;;6.40;99.90;;;;;;5011031;28;20030;-71
2023/04/18 02:09:35;;;;;;;24.02;16.15;;;6.40;99.90;;;;;;5007772;28;20033;-72
2023/04/18 02:12:01;;;;;;;24.40;17.13;;;6.40;99.90;;;;;;5009619;28;20573;-72
2023/04/18 02:14:33;;;;;;;23.67;16.17;;;6.40;99.90;;;;;;5004639;28;20030;-72
2023/04/18 02:16:58;;;;;;;24.17;16.50;;;6.40;99.90;;;;;;5009981;28;20071;-72
2023/04/18 02:19:24;;;;;;;21.17;15.70;;;6.40;99.90;;;;;;5010649;28;20819;-72
2023/04/18 02:21:50;;;;;;;22.17;15.80;;;6.40;99.90;;;;;;5007294;28;20033;-72
2023/04/18 02:24:16;;;;;;;24.88;16.10;;;6.40;99.90;;;;;;5006962;28;20033;-72
2023/04/18 02:26:42;;;;;;;22.58;15.45;;;6.40;99.90;;;;;;5001743;28;20407;-72
2023/04/18 02:29:08;;;;;;;23.25;16.45;;;6.40;99.90;;;;;;5009936;28;20026;-73
2023/04/18 02:31:38;;;;;;;23.58;16.25;;;6.30;99.90;;;;;;5005488;28;20077;-72
2023/04/18 02:34:03;;;;;;;23.15;16.00;;;6.30;99.90;;;;;;5008883;28;20033;-72
2023/04/18 02:36:29;;;;;;;23.88;16.10;;;6.30;99.90;;;;;;5009406;28;20029;-72
2023/04/18 02:38:55;;;;;;;26.88;15.85;;;6.40;99.90;;;;;;5011353;28;20062;-72
2023/04/18 02:41:21;;;;;;;22.73;15.52;;;6.40;99.90;;;;;;5007428;28;20034;-72
2023/04/18 02:43:47;;;;;;;23.17;16.52;;;6.30;99.90;;;;;;5005210;28;20479;-71
2023/04/18 02:46:12;;;;;;;26.08;15.63;;;6.30;99.90;;;;;;5004219;28;20057;-72
2023/04/18 02:48:38;;;;;;;23.30;15.77;;;6.40;99.90;;;;;;5010869;28;20760;-73
2023/04/18 02:51:05;;;;;;;26.77;16.63;;;6.30;99.90;;;;;;5001732;28;20026;-72
2023/04/18 02:53:30;;;;;;;23.05;16.05;;;6.40;99.90;;;;;;5011334;28;20053;-73
2023/04/18 02:55:57;;;;;;;23.17;15.85;;;6.40;99.90;;;;;;5008256;28;20480;-72
2023/04/18 02:58:22;;;;;;;24.08;16.23;;;6.40;99.90;;;;;;5010791;28;20088;-72
2023/04/18 03:00:49;;;;;;;23.58;15.98;;;6.40;99.90;;;;;;5005293;28;20029;-71
2023/04/18 03:03:15;;;;;;;26.00;17.20;;;6.50;99.90;;;;;;5007892;28;20045;-72
2023/04/18 03:05:41;;;;;;;25.25;16.25;;;6.50;99.90;;;;;;5005695;28;20697;-72
2023/04/18 03:08:06;;;;;;;22.88;16.02;;;6.50;99.90;;;;;;5010704;28;20113;-72
2023/04/18 03:10:32;;;;;;;20.63;15.38;;;6.60;99.90;;;;;;5009883;28;20026;-72
2023/04/18 03:12:57;;;;;;;20.80;15.65;;;6.60;99.90;;;;;;5004275;28;20398;-72
2023/04/18 03:15:23;;;;;;;25.75;15.90;;;6.70;99.90;;;;;;4997943;28;20026;-72
2023/04/18 03:17:49;;;;;;;21.58;14.88;;;6.70;99.90;;;;;;5009088;28;20049;-72
2023/04/18 03:20:15;;;;;;;23.60;15.10;;;6.70;99.90;;;;;;5007244;28;20036;-72
2023/04/18 03:22:40;;;;;;;24.20;15.05;;;6.70;99.90;;;;;;5010533;28;20392;-72
2023/04/18 03:25:06;;;;;;;22.92;14.98;;;6.70;99.90;;;;;;5010346;28;20026;-72
2023/04/18 03:27:32;;;;;;;22.75;15.85;;;6.80;99.90;;;;;;5008166;28;20121;-71
2023/04/18 03:29:58;;;;;;;21.23;15.30;;;6.80;99.90;;;;;;5001431;28;20113;-72
2023/04/18 03:32:23;;;;;;;20.90;15.73;;;6.80;99.90;;;;;;5008481;28;20041;-72
2023/04/18 03:34:50;;;;;;;22.33;16.02;;;6.80;99.90;;;;;;5007269;28;20558;-72
2023/04/18 03:37:16;;;;;;;23.55;14.98;;;6.80;99.90;;;;;;4998191;28;20088;-73
2023/04/18 03:39:41;;;;;;;22.45;15.13;;;6.80;99.90;;;;;;5005888;28;20120;-72
2023/04/18 03:42:07;;;;;;;21.27;14.55;;;6.80;99.90;;;;;;5008458;28;20164;-72
2023/04/18 03:44:32;;;;;;;23.52;14.98;;;6.80;99.90;;;;;;5010170;28;20033;-72
2023/04/18 03:46:58;;;;;;;19.80;14.07;;;6.80;99.90;;;;;;5009217;28;20144;-72
2023/04/18 03:49:24;;;;;;;20.85;14.00;;;6.90;99.90;;;;;;4998383;28;20557;-73
2023/04/18 03:51:50;;;;;;;19.30;13.98;;;6.80;99.90;;;;;;5003651;28;20120;-72
2023/04/18 03:54:16;;;;;;;20.90;14.57;;;6.90;99.90;;;;;;4999710;28;20101;-73
2023/04/18 03:56:42;;;;;;;21.58;14.15;;;6.90;99.90;;;;;;5004839;28;20168;-72
2023/04/18 03:59:10;;;;;;;21.10;14.90;;;6.90;99.90;;;;;;5006431;28;20504;-73
2023/04/18 04:01:36;;;;;;;22.63;14.25;;;6.80;99.90;;;;;;4993578;28;20088;-73
2023/04/18 04:04:02;;;;;;;21.08;14.65;;;6.80;99.90;;;;;;5008890;28;20401;-72
2023/04/18 04:06:28;;;;;;;20.35;14.50;;;6.90;99.90;;;;;;5000272;28;20545;-72
2023/04/18 04:08:54;;;;;;;21.35;14.35;;;6.90;99.90;;;;;;5004076;28;20121;-73
2023/04/18 04:11:19;;;;;;;21.05;13.70;;;6.90;99.90;;;;;;5000208;28;20054;-72
2023/04/18 04:13:45;;;;;;;21.02;13.15;;;6.90;99.90;;;;;;5000763;28;20018;-73
2023/04/18 04:16:11;;;;;;;20.50;13.25;;;6.90;99.90;;;;;;5005885;28;20440;-72
2023/04/18 04:18:36;;;;;;;22.60;13.75;;;6.90;99.90;;;;;;5006622;28;20026;-72
2023/04/18 04:21:02;;;;;;;17.17;12.93;;;6.90;99.90;;;;;;4996417;28;20034;-71
2023/04/18 04:23:28;;;;;;;20.35;13.43;;;6.90;99.90;;;;;;5010199;28;20367;-71
2023/04/18 04:25:54;;;;;;;18.77;12.23;;;6.90;99.90;;;;;;5002850;28;20040;-71
2023/04/18 04:28:21;;;;;;;17.45;12.40;;;7.00;99.90;;;;;;5004065;28;20387;-72
2023/04/18 04:30:49;;;;;;;21.83;13.30;;;7.00;99.90;;;;;;5005377;28;20048;-72
2023/04/18 04:33:18;;;;;;;17.02;12.48;;;7.00;99.90;;;;;;5005408;28;20033;-72
2023/04/18 04:35:45;;;;;;;20.00;12.20;;;7.00;99.90;;;;;;4998714;28;20030;-72
2023/04/18 04:38:11;;;;;;;16.98;12.23;;;6.90;99.90;;;;;;5002522;28;20479;-72
2023/04/18 04:40:46;;;;;;;19.42;12.63;;;7.00;99.90;;;;;;5004314;28;20044;-72
2023/04/18 04:43:14;;;;;;;16.15;12.07;;;7.00;99.90;;;;;;5003879;28;20393;-72
2023/04/18 04:45:40;;;;;;;17.52;12.07;;;7.00;99.90;;;;;;5000465;28;20050;-72
2023/04/18 04:48:07;;;;;;;17.25;12.35;;;7.00;99.90;;;;;;4998527;28;20045;-72
2023/04/18 04:50:35;;;;;;;18.17;11.88;;;6.90;99.90;;;;;;5000787;28;20022;-72
2023/04/18 04:53:01;;;;;;;17.00;12.20;;;7.00;99.90;;;;;;5004328;28;20034;-73
2023/04/18 04:55:26;;;;;;;17.90;11.90;;;7.00;99.90;;;;;;5002202;28;20029;-72
2023/04/18 04:57:53;;;;;;;17.50;12.02;;;6.90;99.90;;;;;;5002280;28;20548;-72
2023/04/18 05:00:20;;;;;;;15.90;12.05;;;7.00;99.90;;;;;;4992987;28;20057;-72
2023/04/18 05:02:47;;;;;;;15.77;11.73;;;7.00;99.90;;;;;;4981936;28;20038;-71
2023/04/18 05:05:13;;;;;;;18.27;11.55;;;7.00;99.90;;;;;;4996482;28;20058;-72
2023/04/18 05:07:38;;;;;;;16.23;11.20;;;7.00;99.90;;;;;;4992569;28;20049;-72
2023/04/18 05:10:04;;;;;;;14.82;11.15;;;7.00;99.90;;;;;;4999812;28;20389;-73
2023/04/18 05:12:30;;;;;;;14.75;11.15;;;7.00;99.90;;;;;;4999058;28;20556;-73
2023/04/18 05:14:56;;;;;;;17.00;11.15;;;7.00;99.90;;;;;;4991994;28;20022;-73
2023/04/18 05:17:22;;;;;;;14.73;10.55;;;7.00;99.90;;;;;;4998578;28;20064;-72
2023/04/18 05:19:47;;;;;;;18.05;11.63;;;7.00;99.90;;;;;;4994864;28;20036;-72
2023/04/18 05:22:13;;;;;;;15.70;11.45;;;7.00;99.90;;;;;;5002111;28;20034;-72
2023/04/18 05:24:40;;;;;;;15.32;11.52;;;7.00;99.90;;;;;;4990968;28;20022;-73
2023/04/18 05:27:06;;;;;;;16.33;11.45;;;7.00;99.90;;;;;;4997955;28;20468;-72
2023/04/18 05:29:31;;;;;;;16.05;11.15;;;7.00;99.90;;;;;;4993815;28;20030;-72
2023/04/18 05:31:57;;;;;;;15.07;11.18;;;7.00;99.90;;;;;;4997622;28;20037;-72
2023/04/18 05:34:23;;;;;;;17.45;11.35;;;7.00;99.90;;;;;;4995164;28;20077;-71
2023/04/18 05:36:49;;;;;;;16.08;11.65;;;7.00;99.90;;;;;;5000106;28;20032;-72
2023/04/18 05:39:15;;;;;;;18.02;12.40;;;7.00;99.90;;;;;;5004515;28;20080;-72
2023/04/18 05:41:41;;;;;;;16.63;12.38;;;7.00;99.90;;;;;;5003528;28;20026;-72
2023/04/18 05:44:07;;;;;;;18.10;11.90;;;7.00;99.90;;;;;;5008482;28;20037;-73
2023/04/18 05:46:33;;;;;;;18.05;11.63;;;7.00;99.90;;;;;;5005527;28;20141;-73
2023/04/18 05:48:58;;;;;;;17.50;11.23;;;7.10;99.90;;;;;;4994572;28;20382;-72
2023/04/18 05:51:25;;;;;;;17.13;11.20;;;7.00;99.90;;;;;;4995209;28;20029;-73
2023/04/18 05:53:51;;;;;;;17.23;11.45;;;7.00;99.90;;;;;;4994314;28;20068;-73
2023/04/18 05:56:16;;;;;;;18.10;11.27;;;7.00;99.90;;;;;;5004883;28;20034;-72
2023/04/18 05:58:43;;;;;;;15.82;11.30;;;7.10;99.90;;;;;;5001850;28;20517;-72
2023/04/18 06:01:09;;;;;;;16.60;10.77;;;7.10;99.90;;;;;;4997600;28;20560;-73
2023/04/18 06:03:35;;;;;;;16.92;12.00;;;7.10;99.90;;;;;;5000304;28;20030;-72
2023/04/18 06:06:01;;;;;;;19.05;12.02;;;7.10;99.90;;;;;;5004853;28;20058;-72
2023/04/18 06:08:26;;;;;;;15.88;11.63;;;7.00;99.90;;;;;;5003124;28;20033;-73
2023/04/18 06:10:52;;;;;;;19.73;12.27;;;7.00;99.90;;;;;;5002883;28;20033;-72
2023/04/18 06:13:17;;;;;;;19.70;13.02;;;7.00;99.90;;;;;;5010190;28;20559;-72
2023/04/18 06:15:43;;;;;;;20.40;14.23;;;7.10;99.90;;;;;;5005306;28;20022;-73
2023/04/18 06:18:08;;;;;;;20.80;13.45;;;7.00;99.90;;;;;;5000735;28;20030;-72
2023/04/18 06:20:34;;;;;;;21.30;13.82;;;7.10;99.90;;;;;;4996748;28;20077;-73
2023/04/18 06:23:00;;;;;;;20.02;14.10;;;7.00;99.90;;;;;;4996435;28;20113;-72
2023/04/18 06:25:26;;;;;;;19.80;14.48;;;7.10;99.90;;;;;;4998518;28;20033;-72
2023/04/18 06:27:52;;;;;;;20.90;13.85;;;7.00;99.90;;;;;;5001693;28;20037;-71
2023/04/18 06:30:20;;;;;;;19.48;13.70;;;7.00;99.90;;;;;;4994496;28;20034;-71
2023/04/18 06:32:46;;;;;;;23.27;13.55;;;7.00;99.90;;;;;;5003931;28;20026;-71
2023/04/18 06:35:12;;;;;;;20.52;13.18;;;7.10;99.90;;;;;;4998550;28;20036;-72
2023/04/18 06:37:38;;;;;;;21.60;13.70;;;7.00;99.90;;;;;;5004777;28;20076;-72
2023/04/18 06:40:04;;;;;;;22.38;13.50;;;7.00;99.90;;;;;;4998815;28;20031;-71
2023/04/18 06:42:30;;;;;;;20.23;13.65;;;7.00;99.90;;;;;;5005560;28;20113;-72
2023/04/18 06:44:56;;;;;;;20.90;13.32;;;7.10;99.90;;;;;;5000759;28;20117;-71
2023/04/18 06:47:21;;;;;;;19.70;12.73;;;7.10;99.90;;;;;;5001686;28;20038;-71
2023/04/18 06:49:47;;;;;;;17.17;12.35;;;7.10;99.90;;;;;;5006400;28;20045;-71
2023/04/18 06:52:13;;;;;;;21.10;13.00;;;7.10;99.90;;;;;;5001609;28;20088;-71
2023/04/18 06:54:38;;;;;;;21.38;13.07;;;7.10;99.90;;;;;;5007991;28;20109;-71
2023/04/18 06:57:04;;;;;;;19.63;12.98;;;7.20;99.90;;;;;;5003781;28;20087;-73
2023/04/18 06:59:29;;;;;;;21.08;13.20;;;7.20;99.90;;;;;;4996891;28;20040;-73
2023/04/18 07:01:55;;;;;;;19.15;12.48;;;7.20;99.90;;;;;;4998392;28;20025;-73
2023/04/18 07:04:21;;;;;;;21.85;14.15;;;7.20;99.90;;;;;;5006203;28;20041;-73
2023/04/18 07:06:46;;;;;;;20.40;12.82;;;7.20;99.90;;;;;;5004770;28;20049;-73
2023/04/18 07:09:12;;;;;;;19.40;12.65;;;7.20;99.90;;;;;;4992933;28;20034;-73
2023/04/18 07:11:39;;;;;;;18.52;13.00;;;7.20;99.90;;;;;;5001102;28;20031;-73
2023/04/18 07:14:04;;;;;;;19.67;12.57;;;7.20;99.90;;;;;;5005223;28;22691;-72
2023/04/18 07:16:30;;;;;;;19.52;12.48;;;7.30;99.90;;;;;;4997829;28;20026;-73
2023/04/18 07:18:56;;;;;;;17.67;12.30;;;7.20;99.90;;;;;;4997462;28;20026;-72
2023/04/18 07:21:22;;;;;;;21.95;12.80;;;7.30;99.90;;;;;;4998878;28;20446;-73
2023/04/18 07:23:48;;;;;;;20.65;12.50;;;7.30;99.90;;;;;;4998537;28;20022;-73
2023/04/18 07:26:14;;;;;;;19.23;12.57;;;7.30;99.90;;;;;;4995380;28;20157;-74
2023/04/18 07:28:40;;;;;;;20.13;12.88;;;7.30;99.90;;;;;;4996404;28;20113;-75
2023/04/18 07:31:09;;;;;;;16.73;11.63;;;7.30;99.90;;;;;;4992608;28;20038;-75
2023/04/18 07:33:36;;;;;;;19.88;12.05;;;7.30;99.90;;;;;;4997679;28;20034;-75
2023/04/18 07:36:02;;;;;;;16.98;11.93;;;7.40;99.90;;;;;;5004195;28;20502;-74
2023/04/18 07:38:27;;;;;;;18.88;11.90;;;7.40;99.90;;;;;;4985025;28;20046;-74
2023/04/18 07:40:57;;;;;;;20.35;11.75;;;7.40;99.90;;;;;;4990470;28;20026;-74
2023/04/18 07:43:22;;;;;;;19.48;12.55;;;7.50;99.90;;;;;;4996216;28;20026;-74
2023/04/18 07:45:48;;;;;;;23.08;13.02;;;7.40;99.90;;;;;;4993904;28;20060;-75
2023/04/18 07:48:14;;;;;;;21.13;13.15;;;7.50;99.90;;;;;;5002991;28;20513;-75
2023/04/18 07:50:39;;;;;;;28.55;14.18;;;7.50;99.90;;;;;;4988954;28;20019;-75
2023/04/18 07:53:05;;;;;;;22.17;13.07;;;7.50;99.90;;;;;;5004116;28;20395;-74
2023/04/18 07:55:30;;;;;;;24.50;13.40;;;7.60;99.90;;;;;;4997882;28;20033;-74
2023/04/18 07:57:56;;;;;;;25.63;13.73;;;7.60;99.90;;;;;;5001494;28;20068;-75
2023/04/18 08:00:23;;;;;;;24.80;13.15;;;7.60;99.90;;;;;;5002416;28;20402;-74
2023/04/18 08:02:48;;;;;;;21.63;13.10;;;7.60;99.90;;;;;;5000660;28;20030;-74
2023/04/18 08:05:14;;;;;;;24.08;13.63;;;7.60;99.90;;;;;;4992641;28;20022;-74
2023/04/18 08:07:40;;;;;;;22.55;13.75;;;7.60;99.90;;;;;;4997428;28;20027;-73
2023/04/18 08:10:06;;;;;;;25.50;13.80;;;7.70;99.90;;;;;;5000434;28;20038;-75
2023/04/18 08:12:31;;;;;;;25.38;14.40;;;7.70;99.90;;;;;;4998616;28;20634;-74
2023/04/18 08:14:57;;;;;;;23.20;13.70;;;7.70;99.90;;;;;;5007142;28;20026;-74
2023/04/18 08:17:23;;;;;;;22.15;13.82;;;7.70;99.90;;;;;;5003742;28;20028;-75
2023/04/18 08:19:49;;;;;;;23.13;13.90;;;7.70;99.90;;;;;;5001954;28;20115;-75
2023/04/18 08:22:14;;;;;;;26.92;15.32;;;7.70;99.90;;;;;;4991725;28;20037;-75
2023/04/18 08:24:40;;;;;;;26.45;14.60;;;7.80;99.90;;;;;;4995230;28;20045;-73
2023/04/18 08:27:06;;;;;;;24.85;14.40;;;7.80;99.90;;;;;;5000134;28;20033;-73
2023/04/18 08:29:32;;;;;;;25.35;15.10;;;7.80;99.90;;;;;;5003457;28;20036;-74
2023/04/18 08:31:58;;;;;;;28.58;15.43;;;7.80;99.90;;;;;;4994181;28;20030;-73
2023/04/18 08:34:23;;;;;;;28.00;15.30;;;7.80;99.90;;;;;;4996389;28;20172;-73
2023/04/18 08:36:50;;;;;;;30.17;16.42;;;7.80;99.90;;;;;;4995441;28;20018;-72
2023/04/18 08:39:16;;;;;;;35.90;16.25;;;7.90;99.90;;;;;;5002447;28;20398;-74
2023/04/18 08:41:42;;;;;;;29.38;16.45;;;7.90;99.90;;;;;;4998903;28;20045;-73
2023/04/18 08:44:08;;;;;;;31.90;17.02;;;7.90;99.90;;;;;;5006131;28;20041;-73
2023/04/18 08:46:34;;;;;;;31.70;16.02;;;7.90;99.90;;;;;;4992509;28;20041;-74
2023/04/18 08:49:02;;;;;;;28.15;16.25;;;8.00;99.90;;;;;;4992649;28;20121;-74
2023/04/18 08:51:36;;;;;;;31.10;17.83;;;8.10;99.90;;;;;;4993513;28;20426;-74
2023/04/18 08:54:05;;;;;;;30.00;18.02;;;8.10;99.90;;;;;;4998209;28;20026;-74
2023/04/18 08:56:30;;;;;;;30.65;18.15;;;8.10;99.90;;;;;;4998913;28;20034;-73
2023/04/18 08:58:59;;;;;;;32.15;18.95;;;8.20;99.90;;;;;;5001963;28;20032;-74
2023/04/18 09:01:51;;;;;;;32.90;19.58;;;8.20;99.90;;;;;;4988686;28;20514;-74
2023/04/18 09:04:42;;;;;;;33.92;19.52;;;8.30;99.90;;;;;;4988725;28;20382;-73
2023/04/18 09:07:13;;;;;;;35.10;19.85;;;8.40;99.90;;;;;;4991820;28;20439;-73
2023/04/18 09:09:42;;;;;;;35.90;21.38;;;8.50;99.90;;;;;;4990931;28;20342;-73
2023/04/18 09:12:09;;;;;;;33.92;20.58;;;8.60;99.90;;;;;;4984027;28;20735;-73
2023/04/18 09:14:36;;;;;;;34.53;20.60;;;8.70;99.90;;;;;;4991547;28;20033;-73
2023/04/18 09:17:03;;;;;;;35.97;20.50;;;8.90;99.90;;;;;;4999825;28;20449;-74
2023/04/18 09:19:29;;;;;;;34.50;20.95;;;9.00;99.90;;;;;;4991279;28;20028;-73
2023/04/18 09:21:59;;;;;;;34.83;20.90;;;9.10;99.90;;;;;;4995397;28;20038;-73
2023/04/18 09:24:27;;;;;;;32.83;20.67;;;9.20;99.90;;;;;;4989401;28;20088;-73
2023/04/18 09:26:58;;;;;;;33.65;20.02;;;9.30;99.90;;;;;;4988724;28;20346;-73
2023/04/18 09:29:45;;;;;;;32.13;21.20;;;9.30;99.90;;;;;;5001300;28;20440;-73
2023/04/18 09:32:23;;;;;;;29.30;20.17;;;9.40;99.90;;;;;;5002934;28;20128;-74
2023/04/18 09:35:00;;;;;;;29.80;20.50;;;9.50;99.90;;;;;;5003796;28;20026;-73
2023/04/18 09:37:27;;;;;;;29.38;20.38;;;9.50;99.90;;;;;;5001031;28;20120;-73
2023/04/18 09:39:53;;;;;;;29.15;20.05;;;9.60;99.90;;;;;;4998273;28;20303;-73
2023/04/18 09:42:20;;;;;;;30.42;20.55;;;9.60;99.90;;;;;;5004066;28;20030;-72
2023/04/18 09:45:06;;;;;;;31.58;20.65;;;9.70;99.90;;;;;;4994035;28;20397;-72
2023/04/18 09:47:36;;;;;;;28.52;18.85;;;9.70;99.90;;;;;;4995915;28;20124;-73
2023/04/18 09:50:07;;;;;;;28.33;19.27;;;9.70;99.90;;;;;;4995619;28;20113;-72
2023/04/18 09:52:40;;;;;;;25.65;18.23;;;9.90;99.90;;;;;;5000388;28;20117;-72
2023/04/18 09:55:08;;;;;;;26.35;18.23;;;10.00;99.90;;;;;;5002838;28;20513;-73
2023/04/18 09:57:39;;;;;;;24.23;17.42;;;10.10;99.90;;;;;;4998523;28;20444;-73
2023/04/18 10:00:20;;;;;;;23.55;17.08;;;10.20;99.90;;;;;;5002665;28;20040;-73
2023/04/18 10:03:06;;;;;;;24.02;17.63;;;10.30;99.90;;;;;;4995642;28;20112;-72
2023/04/18 10:05:38;;;;;;;22.23;16.58;;;10.50;99.90;;;;;;4997472;28;20046;-73
2023/04/18 10:08:05;;;;;;;20.95;15.70;;;10.60;99.90;;;;;;4995256;28;20037;-74
2023/04/18 10:10:31;;;;;;;21.02;15.77;;;10.70;99.90;;;;;;4992442;28;20034;-72
2023/04/18 10:13:00;;;;;;;21.00;15.23;;;10.70;99.90;;;;;;5006306;28;20026;-73
2023/04/18 10:15:28;;;;;;;21.88;16.25;;;10.80;99.90;;;;;;5000789;28;20045;-72
2023/04/18 10:18:02;;;;;;;22.08;17.20;;;10.80;99.90;;;;;;5008389;28;20144;-72
2023/04/18 10:20:29;;;;;;;23.02;17.90;;;10.70;99.90;;;;;;5011202;28;20037;-72
2023/04/18 10:22:57;;;;;;;23.75;17.38;;;10.70;99.90;;;;;;4996147;28;20076;-73
2023/04/18 10:25:49;;;;;;;24.00;17.70;;;10.80;99.90;;;;;;5007389;28;20030;-73
2023/04/18 10:28:16;;;;;;;18.45;14.38;;;10.80;99.90;;;;;;5004341;28;20405;-75
2023/04/18 10:30:44;;;;;;;23.58;16.30;;;10.90;99.90;;;;;;5007750;28;20018;-73
2023/04/18 10:33:34;;;;;;;20.05;15.93;;;;;;;;;;5000206;28;20034;-73
2023/04/18 10:36:01;;;;;;;22.38;16.33;;;;;;;;;;4993717;28;20054;-73
2023/04/18 10:38:27;;;;;;;20.42;15.75;;;;;;;;;;4996470;28;20026;-73
2023/04/18 10:41:11;;;;;;;20.40;15.85;;;;;;;;;;4998871;28;20038;-73
2023/04/18 10:44:16;;;;;;;20.55;15.25;;;11.00;99.90;;;;;;4992660;28;20030;-73
2023/04/18 10:46:51;;;;;;;19.02;15.00;;;11.10;99.90;;;;;;4999364;28;20155;-73
2023/04/18 10:49:19;;;;;;;19.52;15.43;;;11.20;99.90;;;;;;4999067;28;20041;-73
2023/04/18 10:51:50;;;;;;;19.38;14.50;;;11.30;99.90;;;;;;4994909;28;20121;-73
2023/04/18 10:54:34;;;;;;;19.83;15.43;;;11.40;99.90;;;;;;4997168;28;20075;-72
2023/04/18 10:57:02;;;;;;;18.08;14.63;;;11.60;99.90;;;;;;4996984;28;20402;-73
2023/04/18 10:59:33;;;;;;;22.95;14.45;;;11.90;99.90;;;;;;5002245;28;20039;-72
2023/04/18 11:02:10;;;;;;;17.02;13.70;;;12.00;99.90;;;;;;4996235;28;20029;-72
2023/04/18 11:04:36;;;;;;;15.60;12.95;;;12.40;99.90;;;;;;4998035;28;20041;-72
2023/04/18 11:07:02;;;;;;;15.98;13.05;;;12.70;99.90;;;;;;5000350;28;20121;-73
2023/04/18 11:09:27;;;;;;;16.42;13.68;;;13.00;99.90;;;;;;4995281;28;20065;-73
2023/04/18 11:12:10;;;;;;;18.55;13.30;;;13.20;99.90;;;;;;4994580;28;20018;-72
2023/04/18 11:14:42;;;;;;;19.48;13.43;;;13.00;99.90;;;;;;4999192;28;20025;-73
2023/04/18 11:17:22;;;;;;;16.20;12.48;;;12.80;99.90;;;;;;4999626;28;20465;-73
2023/04/18 11:19:48;;;;;;;16.33;13.63;;;12.60;99.90;;;;;;5000727;28;20050;-72
2023/04/18 11:22:15;;;;;;;15.32;13.35;;;12.50;99.90;;;;;;5007066;28;20022;-73
2023/04/18 11:24:40;;;;;;;17.05;13.00;;;12.50;99.90;;;;;;5003160;28;20036;-73
2023/04/18 11:27:10;;;;;;;15.75;12.85;;;12.50;99.90;;;;;;4988907;28;20124;-72
2023/04/18 11:29:37;;;;;;;15.45;11.98;;;12.40;99.90;;;;;;4994451;28;21043;-72
2023/04/18 11:32:06;;;;;;;15.32;11.38;;;12.30;99.90;;;;;;5001211;28;20026;-72
2023/04/18 11:34:31;;;;;;;13.73;11.15;;;12.20;99.90;;;;;;4658373;28;10001107;-73
2023/04/18 11:36:57;;;;;;;14.07;11.40;;;12.10;99.90;;;;;;4999027;28;20030;-73
2023/04/18 11:39:23;;;;;;;14.57;10.63;;;;;;;;;;5003883;28;20041;-72
2023/04/18 11:41:49;;;;;;;16.65;12.45;;;12.30;99.90;;;;;;4991185;28;20069;-73
2023/04/18 11:44:25;;;;;;;14.60;11.65;;;12.40;99.90;;;;;;4995385;28;20042;-72
2023/04/18 11:46:54;;;;;;;16.67;13.55;;;12.40;99.90;;;;;;4992432;28;20181;-73
2023/04/18 11:49:27;;;;;;;18.08;14.13;;;12.40;99.90;;;;;;4997653;28;20108;-74
2023/04/18 11:51:53;;;;;;;14.98;12.10;;;12.60;99.90;;;;;;5001147;28;20485;-74
2023/04/18 11:54:38;;;;;;;16.45;13.05;;;12.70;99.90;;;;;;4997826;28;20053;-74
2023/04/18 11:57:05;;;;;;;15.95;13.00;;;12.60;99.90;;;;;;4990910;28;20033;-73
2023/04/18 11:59:31;;;;;;;17.63;14.43;;;12.50;99.90;;;;;;4985916;28;20034;-74
2023/04/18 12:02:03;;;;;;;17.23;13.75;;;12.40;99.90;;;;;;4990781;28;20559;-75
2023/04/18 12:04:29;;;;;;;20.10;14.13;;;12.40;99.90;;;;;;4995669;28;20560;-74
2023/04/18 12:06:55;;;;;;;16.13;12.88;;;12.50;99.90;;;;;;4999371;28;20452;-75
2023/04/18 12:09:23;;;;;;;17.23;12.68;;;12.70;99.90;;;;;;4997150;28;20045;-74
2023/04/18 12:12:17;;;;;;;15.80;12.50;;;12.70;99.90;;;;;;4995824;28;20104;-74
2023/04/18 12:14:44;;;;;;;14.65;12.00;;;12.90;99.90;;;;;;4998023;28;20058;-74
2023/04/18 12:17:12;;;;;;;14.68;12.05;;;13.00;99.90;;;;;;4998386;28;20334;-74
2023/04/18 12:19:37;;;;;;;15.70;12.93;;;13.10;99.90;;;;;;4997171;28;20676;-74
2023/04/18 12:22:06;;;;;;;15.85;12.38;;;13.10;99.90;;;;;;4995466;28;20029;-74
2023/04/18 12:24:32;;;;;;;15.48;12.32;;;12.90;99.90;;;;;;4998257;28;20041;-74
2023/04/18 12:26:58;;;;;;;16.30;12.63;;;12.80;99.90;;;;;;4996870;28;20042;-73
2023/04/18 12:29:26;;;;;;;17.55;13.63;;;12.70;99.90;;;;;;4996662;28;20088;-74
2023/04/18 12:31:51;;;;;;;17.30;13.50;;;12.60;99.90;;;;;;5000152;28;20022;-74
2023/04/18 12:34:17;;;;;;;18.50;13.80;;;12.60;99.90;;;;;;4993955;28;20037;-73
2023/04/18 12:36:42;;;;;;;14.50;12.48;;;12.60;99.90;;;;;;4992254;28;20053;-74